Time;durP1;ratioP1;P1;durP2;ratioP2;P2;SDS_P1;SDS_P2;PMS_P1;PMS_P2;Temp;Humidity;BMP_temperature;BMP_pressure;BME280_temperature;BME280_humidity;BME280_pressure;Samples;Min_cycle;Max_cycle;Signal;HPM_P1;HPM_P2
2021/05/19 00:00:12;;;;;;;0.20;0.13;;;17.40;99.90;;;;;;20622003;28;20688;-76
2021/05/19 00:10:16;;;;;;;0.53;0.30;;;17.40;99.90;;;;;;20612118;28;20227;-74
2021/05/19 00:20:21;;;;;;;0.90;0.40;;;17.60;99.90;;;;;;20627343;28;20259;-74
2021/05/19 00:30:25;;;;;;;0.20;0.10;;;17.60;99.90;;;;;;20624893;28;20200;-74
2021/05/19 00:40:30;;;;;;;0.73;0.60;;;17.00;99.90;;;;;;20621465;28;20611;-77
2021/05/19 00:50:38;;;;;;;0.20;0.10;;;16.80;99.90;;;;;;20628698;28;20204;-76
2021/05/19 01:00:42;;;;;;;0.20;0.07;;;16.90;99.90;;;;;;20626318;28;20231;-77
2021/05/19 01:10:46;;;;;;;0.27;0.17;;;16.70;99.90;;;;;;20615835;28;20228;-76
2021/05/19 01:20:49;;;;;;;0.20;0.10;;;17.00;99.90;;;;;;20598818;28;20339;-73
2021/05/19 01:30:53;;;;;;;1.17;1.07;;;17.00;99.90;;;;;;20588654;28;20206;-78
2021/05/19 01:40:56;;;;;;;0.20;0.10;;;16.90;99.90;;;;;;20550133;28;20272;-75
2021/05/19 01:51:01;;;;;;;0.40;0.10;;;16.80;99.90;;;;;;20532513;28;20204;-75
2021/05/19 02:01:06;;;;;;;0.20;0.10;;;16.70;99.90;;;;;;20533808;28;20718;-78
2021/05/19 02:11:10;;;;;;;0.20;0.00;;;16.80;99.90;;;;;;20530048;28;20207;-78
2021/05/19 02:21:14;;;;;;;0.20;0.10;;;17.00;99.90;;;;;;20516723;28;20611;-80
2021/05/19 02:31:19;;;;;;;0.20;0.10;;;16.90;99.90;;;;;;20540617;28;20825;-80
2021/05/19 02:41:23;;;;;;;0.20;0.10;;;17.00;99.90;;;;;;20592670;28;20234;-77
2021/05/19 02:51:27;;;;;;;1.70;0.30;;;16.60;99.90;;;;;;20609224;28;20282;-79
2021/05/19 03:01:30;;;;;;;0.20;0.00;;;16.90;99.90;;;;;;20622523;28;20235;-74
2021/05/19 03:11:34;;;;;;;0.20;0.00;;;16.70;99.90;;;;;;20617696;28;20195;-77
2021/05/19 03:21:38;;;;;;;0.20;0.10;;;16.80;99.90;;;;;;20624796;28;20243;-77
2021/05/19 03:31:42;;;;;;;0.20;0.10;;;16.80;99.90;;;;;;20612237;28;20664;-78
2021/05/19 03:41:46;;;;;;;0.20;0.20;;;16.60;99.90;;;;;;20623904;28;20227;-78
2021/05/19 03:51:50;;;;;;;0.40;0.30;;;16.70;99.90;;;;;;20622305;28;20200;-78
2021/05/19 04:01:53;;;;;;;0.30;0.23;;;16.60;99.90;;;;;;20621907;28;20506;-79
2021/05/19 04:11:57;;;;;;;2.77;0.87;;;16.50;99.90;;;;;;20621619;28;20196;-77
2021/05/19 04:22:00;;;;;;;0.30;0.30;;;16.60;99.90;;;;;;20620065;28;20338;-78
2021/05/19 04:32:05;;;;;;;0.20;0.10;;;16.70;99.90;;;;;;20591191;28;20227;-76
2021/05/19 04:42:09;;;;;;;1.03;0.97;;;16.80;99.90;;;;;;20619299;28;20259;-76
2021/05/19 04:52:13;;;;;;;0.30;0.27;;;17.00;99.90;;;;;;20593902;28;20192;-75
2021/05/19 05:02:16;;;;;;;0.30;0.27;;;17.00;99.90;;;;;;20536539;28;20376;-76
2021/05/19 05:12:21;;;;;;;5.53;0.47;;;17.00;99.90;;;;;;20534724;28;20796;-76
2021/05/19 05:22:25;;;;;;;1.13;0.60;;;16.90;99.90;;;;;;20536247;28;20228;-75
2021/05/19 05:32:31;;;;;;;1.87;0.83;;;17.10;99.90;;;;;;20514935;28;20271;-76
2021/05/19 05:42:35;;;;;;;0.30;0.20;;;17.20;99.90;;;;;;20533772;28;20589;-69
2021/05/19 05:52:41;;;;;;;4.13;0.43;;;17.10;99.90;;;;;;20533967;28;20196;-76
2021/05/19 06:02:45;;;;;;;0.20;0.13;;;17.10;99.90;;;;;;20534098;28;20236;-73
2021/05/19 06:12:50;;;;;;;0.20;0.20;;;17.50;99.90;;;;;;20516784;28;20289;-80
2021/05/19 06:22:54;;;;;;;0.20;0.10;;;17.60;99.90;;;;;;20532577;28;20219;-79
2021/05/19 06:32:58;;;;;;;0.20;0.00;;;17.60;99.90;;;;;;20539650;28;20317;-77
2021/05/19 06:43:01;;;;;;;0.20;0.10;;;17.70;99.90;;;;;;20610716;28;20231;-77
2021/05/19 06:53:06;;;;;;;5.10;0.40;;;17.60;99.90;;;;;;20610236;28;20381;-78
2021/05/19 07:03:09;;;;;;;0.97;0.50;;;17.60;99.90;;;;;;20583742;28;20263;-72
2021/05/19 07:13:17;;;;;;;0.20;0.20;;;17.60;99.90;;;;;;20535655;28;20583;-74
2021/05/19 07:23:20;;;;;;;0.20;0.10;;;17.80;99.90;;;;;;20530836;28;20549;-75
2021/05/19 07:33:25;;;;;;;2.10;0.30;;;18.10;99.90;;;;;;20513669;28;20818;-79
2021/05/19 07:43:31;;;;;;;2.63;0.30;;;18.40;99.90;;;;;;20460035;28;20276;-78
2021/05/19 07:53:35;;;;;;;0.20;0.13;;;18.10;99.90;;;;;;20509303;28;20316;-78
2021/05/19 08:03:38;;;;;;;0.20;0.10;;;18.30;99.90;;;;;;20443265;28;20237;-81
2021/05/19 08:13:41;;;;;;;0.40;0.10;;;18.60;99.90;;;;;;20445614;29;20503;-80
2021/05/19 08:23:43;;;;;;;0.20;0.13;;;18.40;99.90;;;;;;20455382;29;20621;-83
2021/05/19 08:33:49;;;;;;;0.30;0.20;;;18.60;99.90;;;;;;20517508;28;20208;-84
2021/05/19 08:43:52;;;;;;;0.30;0.30;;;18.50;99.90;;;;;;20534487;28;20681;-76
2021/05/19 08:53:58;;;;;;;0.77;0.23;;;19.60;99.90;;;;;;20537226;28;20496;-74
2021/05/19 09:04:06;;;;;;;0.50;0.40;;;19.50;99.90;;;;;;20552943;28;20343;-74
2021/05/19 09:14:13;;;;;;;2.33;0.30;;;19.50;99.90;;;;;;20614596;28;20254;-73
2021/05/19 09:24:34;;;;;;;0.40;0.40;;;19.90;99.90;;;;;;20615046;28;20207;-76
2021/05/19 09:34:39;;;;;;;0.83;0.20;;;20.20;99.90;;;;;;20514464;28;20611;-76
2021/05/19 09:44:45;;;;;;;13.70;0.43;;;20.70;99.90;;;;;;20529704;28;20203;-77
2021/05/19 09:54:50;;;;;;;7.73;0.63;;;18.40;99.90;;;;;;20533839;28;20297;-80
2021/05/19 10:04:58;;;;;;;0.20;0.20;;;18.70;99.90;;;;;;20592493;28;20453;-74
2021/05/19 10:15:07;;;;;;;0.40;0.13;;;18.50;99.90;;;;;;20610889;28;20696;-84
2021/05/19 10:25:18;;;;;;;0.20;0.10;;;18.40;99.90;;;;;;20595981;28;20454;-74
2021/05/19 10:35:32;;;;;;;0.33;0.17;;;19.00;99.90;;;;;;20537937;28;20223;-73
2021/05/19 10:45:55;;;;;;;0.40;0.30;;;19.50;99.90;;;;;;20529668;28;20208;-74
2021/05/19 11:06:22;;;;;;;0.20;0.20;;;19.40;99.90;;;;;;20539762;28;20236;-65
2021/05/19 11:16:51;;;;;;;3.17;0.40;;;19.80;99.90;;;;;;20606650;28;20739;-65
2021/05/19 11:26:54;;;;;;;0.83;0.83;;;19.00;99.90;;;;;;20583716;28;20267;-63
2021/05/19 11:36:59;;;;;;;2.10;0.90;;;19.50;99.90;;;;;;20538231;28;20231;-62
2021/05/19 11:47:03;;;;;;;0.20;0.10;;;19.90;99.90;;;;;;20539453;28;20282;-66
2021/05/19 11:57:07;;;;;;;0.30;0.20;;;19.60;99.90;;;;;;20541126;28;21040;-63
2021/05/19 12:07:14;;;;;;;0.20;0.20;;;19.80;99.90;;;;;;20539087;28;20254;-63
2021/05/19 12:17:22;;;;;;;2.43;0.97;;;20.90;99.90;;;;;;20543630;28;20736;-64
2021/05/19 12:27:25;;;;;;;0.40;0.40;;;22.00;99.90;;;;;;20535931;28;20202;-64
2021/05/19 12:37:42;;;;;;;0.28;0.15;;;21.40;99.90;;;;;;20529958;28;20319;-64
2021/05/19 12:47:57;;;;;;;0.20;0.10;;;21.90;99.90;;;;;;20532045;28;20208;-63
2021/05/19 12:58:09;;;;;;;0.65;0.60;;;22.30;99.90;;;;;;20517606;28;20238;-62
2021/05/19 13:08:18;;;;;;;0.93;0.50;;;23.70;99.90;;;;;;20534743;28;20705;-62
2021/05/19 13:18:27;;;;;;;0.85;0.77;;;23.30;99.90;;;;;;20530313;28;20234;-62
2021/05/19 13:28:30;;;;;;;0.20;0.00;;;23.60;99.90;;;;;;20514445;28;20192;-62
2021/05/19 13:38:34;;;;;;;0.30;0.30;;;25.30;99.90;;;;;;20514617;28;20986;-63
2021/05/19 13:48:37;;;;;;;1.30;0.93;;;23.40;99.90;;;;;;20531953;28;20306;-62
2021/05/19 13:58:44;;;;;;;0.77;0.75;;;23.40;99.90;;;;;;20529312;28;20235;-62
2021/05/19 14:08:47;;;;;;;0.55;0.40;;;22.70;99.90;;;;;;20528617;28;20598;-62
2021/05/19 14:19:03;;;;;;;0.40;0.22;;;24.10;99.90;;;;;;20512190;28;20586;-71
2021/05/19 14:29:06;;;;;;;3.28;1.38;;;24.60;99.90;;;;;;20527844;28;20617;-63
2021/05/19 14:59:50;;;;;;;0.50;0.40;;;25.70;99.90;;;;;;20527556;28;20341;-64
2021/05/19 15:09:53;;;;;;;0.20;0.10;;;25.20;99.90;;;;;;20518470;28;20811;-66
2021/05/19 15:19:57;;;;;;;1.00;0.95;;;26.50;99.90;;;;;;20539293;28;20231;-64
2021/05/19 15:30:00;;;;;;;2.50;0.55;;;25.80;99.90;;;;;;20523762;28;20291;-64
2021/05/19 15:40:06;;;;;;;5.77;1.23;;;25.40;99.90;;;;;;20539452;28;20220;-64
2021/05/19 15:50:10;;;;;;;1.97;0.97;;;22.40;99.90;;;;;;20540942;28;20323;-64
2021/05/19 16:00:15;;;;;;;0.20;0.10;;;20.90;99.90;;;;;;20599471;28;20387;-66
2021/05/19 16:10:19;;;;;;;0.80;0.63;;;20.30;99.90;;;;;;20536273;28;20440;-64
2021/05/19 16:20:23;;;;;;;4.73;0.13;;;19.90;99.90;;;;;;20533099;28;20263;-63
2021/05/19 16:31:06;;;;;;;0.30;0.30;;;19.60;99.90;;;;;;20506899;28;20200;-63
2021/05/19 16:41:10;;;;;;;12.00;0.87;;;19.50;99.90;;;;;;20515390;28;20709;-63
2021/05/19 16:51:14;;;;;;;0.70;0.40;;;19.50;99.90;;;;;;20532419;28;20215;-63
2021/05/19 17:01:34;;;;;;;2.20;0.77;;;19.20;99.90;;;;;;20562431;28;20245;-64
2021/05/19 17:11:39;;;;;;;0.20;0.10;;;19.30;99.90;;;;;;20614297;28;20604;-64
2021/05/19 17:21:43;;;;;;;0.20;0.10;;;19.10;99.90;;;;;;20597099;28;20227;-63
2021/05/19 17:31:46;;;;;;;0.37;0.37;;;19.00;99.90;;;;;;20605076;28;20290;-64
2021/05/19 17:41:50;;;;;;;0.50;0.30;;;19.00;99.90;;;;;;20612459;28;20258;-63
2021/05/19 17:51:54;;;;;;;2.73;0.23;;;18.90;99.90;;;;;;20597204;28;20432;-63
2021/05/19 18:01:58;;;;;;;1.27;1.17;;;18.80;99.90;;;;;;20593027;28;20239;-63
2021/05/19 18:12:01;;;;;;;1.90;0.80;;;18.80;99.90;;;;;;20590613;28;20934;-66
2021/05/19 18:22:06;;;;;;;0.30;0.30;;;18.40;99.90;;;;;;20577227;28;20382;-62
2021/05/19 18:32:13;;;;;;;0.93;0.50;;;18.50;99.90;;;;;;20571925;28;20558;-64
2021/05/19 18:42:17;;;;;;;0.20;0.00;;;18.30;99.90;;;;;;20511460;28;20230;-62
2021/05/19 18:52:21;;;;;;;0.20;0.10;;;18.30;99.90;;;;;;20609408;28;20204;-65
2021/05/19 19:02:26;;;;;;;0.20;0.20;;;18.30;99.90;;;;;;20589022;28;20329;-63
2021/05/19 19:12:29;;;;;;;0.20;0.20;;;18.30;99.90;;;;;;20609096;28;20423;-63
2021/05/19 19:22:34;;;;;;;0.20;0.10;;;18.10;99.90;;;;;;20606178;28;20715;-63
2021/05/19 19:32:37;;;;;;;0.20;0.20;;;18.10;99.90;;;;;;20600561;28;20199;-62
2021/05/19 19:42:42;;;;;;;0.50;0.50;;;18.00;99.90;;;;;;20603754;28;20704;-62
2021/05/19 19:52:47;;;;;;;0.63;0.20;;;18.10;99.90;;;;;;20599435;28;20446;-66
2021/05/19 20:02:56;;;;;;;0.20;0.10;;;18.00;99.90;;;;;;20620091;28;20765;-63
2021/05/19 20:12:59;;;;;;;0.20;0.10;;;17.90;99.90;;;;;;20603883;28;20197;-63
2021/05/19 20:23:04;;;;;;;0.20;0.10;;;17.80;99.90;;;;;;20555534;28;20224;-63
2021/05/19 20:33:07;;;;;;;2.73;1.23;;;18.00;99.90;;;;;;20537054;28;20210;-63
2021/05/19 20:43:11;;;;;;;0.20;0.10;;;17.90;99.90;;;;;;20601089;28;20877;-65
2021/05/19 20:53:14;;;;;;;0.20;0.20;;;17.80;99.90;;;;;;20598580;28;20676;-67
2021/05/19 21:03:18;;;;;;;5.83;1.17;;;17.50;99.90;;;;;;20564832;28;20536;-66
2021/05/19 21:13:21;;;;;;;0.30;0.10;;;17.20;99.90;;;;;;20594245;28;20202;-65
2021/05/19 21:23:26;;;;;;;0.53;0.40;;;17.20;99.90;;;;;;20543105;28;20704;-64
2021/05/19 21:33:29;;;;;;;0.20;0.10;;;17.20;99.90;;;;;;20553255;28;20192;-65
2021/05/19 21:43:34;;;;;;;0.70;0.67;;;17.20;99.90;;;;;;20596383;28;20592;-64
2021/05/19 21:53:37;;;;;;;0.40;0.30;;;17.00;99.90;;;;;;20611082;28;20200;-64
2021/05/19 22:03:41;;;;;;;3.10;0.53;;;16.90;99.90;;;;;;20612388;28;20243;-64
2021/05/19 22:13:44;;;;;;;2.97;1.50;;;16.80;99.90;;;;;;20544874;28;20206;-65
2021/05/19 22:34:18;;;;;;;2.60;0.47;;;17.00;99.90;;;;;;20549019;28;20223;-64
2021/05/19 22:44:22;;;;;;;0.70;0.40;;;16.90;99.90;;;;;;20491026;28;20230;-64
2021/05/19 22:54:25;;;;;;;0.20;0.00;;;17.20;99.90;;;;;;20510847;28;20207;-65
2021/05/19 23:04:29;;;;;;;0.40;0.40;;;17.30;99.90;;;;;;20526881;28;20238;-65
2021/05/19 23:14:32;;;;;;;0.20;0.10;;;17.30;99.90;;;;;;20581022;28;20657;-64
2021/05/19 23:24:36;;;;;;;0.33;0.33;;;17.30;99.90;;;;;;20611579;28;20227;-63
2021/05/19 23:34:39;;;;;;;0.20;0.17;;;17.20;99.90;;;;;;20622725;28;20203;-63
2021/05/19 23:44:43;;;;;;;19.13;0.37;;;16.90;99.90;;;;;;20621916;28;20253;-64
2021/05/19 23:54:47;;;;;;;0.30;0.30;;;17.00;99.90;;;;;;20604483;28;20199;-63
